createdAt,value
2023-02-26T00:00:21.335Z,-0.18
2023-02-26T00:02:24.059Z,-0.07
2023-02-26T00:04:28.310Z,-0.28
2023-02-26T00:06:33.592Z,-0.35
2023-02-26T00:08:36.506Z,-0.44
2023-02-26T00:10:39.073Z,-0.51
2023-02-26T00:12:42.258Z,-0.10
2023-02-26T00:14:45.585Z,-0.28
2023-02-26T00:16:54.558Z,-0.34
2023-02-26T00:18:58.936Z,-0.41
2023-02-26T00:21:03.688Z,-0.40
2023-02-26T00:23:06.972Z,-0.50
2023-02-26T00:25:10.782Z,-0.50
2023-02-26T00:27:13.758Z,-0.56
2023-02-26T00:29:17.026Z,-0.43
2023-02-26T00:31:24.541Z,-0.59
2023-02-26T00:33:27.943Z,-0.53
2023-02-26T00:35:31.168Z,-0.54
2023-02-26T00:37:51.399Z,-0.39
2023-02-26T00:40:06.337Z,-0.50
2023-02-26T00:42:09.849Z,-0.51
2023-02-26T00:44:13.125Z,-0.78
2023-02-26T00:46:25.325Z,-0.46
2023-02-26T00:48:47.002Z,-0.86
2023-02-26T00:50:57.924Z,-0.77
2023-02-26T00:53:11.392Z,-0.71
2023-02-26T00:55:14.154Z,-0.58
2023-02-26T00:57:16.772Z,-0.72
2023-02-26T00:59:20.505Z,-0.94
2023-02-26T01:01:23.142Z,-0.88
2023-02-26T01:03:26.446Z,-0.77
2023-02-26T01:05:29.736Z,-0.78
2023-02-26T01:07:41.457Z,-0.71
2023-02-26T01:09:46.151Z,-0.58
2023-02-26T01:11:50.006Z,-0.66
2023-02-26T01:13:53.211Z,-0.52
2023-02-26T01:16:03.681Z,-0.65
2023-02-26T01:18:12.751Z,-0.66
2023-02-26T01:20:19.568Z,-0.61
2023-02-26T01:22:30.094Z,-0.93
2023-02-26T01:24:35.005Z,-0.91
2023-02-26T01:26:39.417Z,-0.89
2023-02-26T01:28:42.415Z,-0.87
2023-02-26T01:30:46.265Z,-0.92
2023-02-26T01:32:53.341Z,-1.02
2023-02-26T01:35:00.955Z,-1.00
2023-02-26T01:37:14.792Z,-1.01
2023-02-26T01:39:26.855Z,-1.24
2023-02-26T01:41:32.326Z,-1.17
2023-02-26T01:43:45.330Z,-1.31
2023-02-26T01:45:55.581Z,-1.32
2023-02-26T01:48:04.613Z,-1.37
2023-02-26T01:50:14.082Z,-1.30
2023-02-26T01:53:05.264Z,-1.47
2023-02-26T01:55:08.034Z,-1.47
2023-02-26T01:57:15.290Z,-1.49
2023-02-26T01:59:24.423Z,-1.48
2023-02-26T02:01:27.324Z,-1.56
2023-02-26T02:03:33.110Z,-1.33
2023-02-26T02:05:42.714Z,-1.45
2023-02-26T02:07:45.314Z,-1.69
2023-02-26T02:09:48.347Z,-1.60
2023-02-26T02:12:06.214Z,-1.76
2023-02-26T02:14:14.893Z,-1.71
2023-02-26T02:16:29.027Z,-1.66
2023-02-26T02:18:43.104Z,-1.69
2023-02-26T02:21:22.910Z,-1.69
2023-02-26T02:23:34.186Z,-1.59
2023-02-26T02:26:01.904Z,-1.80
2023-02-26T02:28:14.179Z,-1.80
2023-02-26T02:30:30.650Z,-1.80
2023-02-26T02:32:39.835Z,-1.79
2023-02-26T02:34:48.299Z,-1.64
2023-02-26T02:36:58.226Z,-1.77
2023-02-26T02:39:04.314Z,-1.81
2023-02-26T02:41:10.558Z,-1.84
2023-02-26T02:43:16.316Z,-1.81
2023-02-26T02:45:25.107Z,-1.76
2023-02-26T02:47:29.862Z,-1.76
2023-02-26T02:49:38.578Z,-1.81
2023-02-26T02:51:46.224Z,-1.84
2023-02-26T02:53:52.168Z,-1.83
2023-02-26T02:55:59.403Z,-1.88
2023-02-26T02:58:05.888Z,-1.93
2023-02-26T03:00:12.938Z,-1.86
2023-02-26T03:02:20.693Z,-1.95
2023-02-26T03:04:23.502Z,-2.01
2023-02-26T03:06:27.636Z,-1.93
2023-02-26T03:08:35.943Z,-1.96
2023-02-26T03:10:38.780Z,-1.93
2023-02-26T03:12:41.430Z,-1.97
2023-02-26T03:14:44.552Z,-1.92
2023-02-26T03:17:01.493Z,-2.07
2023-02-26T03:19:16.733Z,-2.00
2023-02-26T03:21:28.150Z,-1.99
2023-02-26T03:23:36.536Z,-2.02
2023-02-26T03:25:46.564Z,-1.98
2023-02-26T03:27:56.082Z,-2.03
2023-02-26T03:30:03.563Z,-2.07
2023-02-26T03:32:12.110Z,-2.12
2023-02-26T03:34:20.676Z,-2.09
2023-02-26T03:36:30.453Z,-2.14
2023-02-26T03:38:40.214Z,-2.06
2023-02-26T03:40:47.045Z,-2.14
2023-02-26T03:42:54.874Z,-1.99
2023-02-26T03:45:00.924Z,-2.11
2023-02-26T03:47:11.621Z,-2.00
2023-02-26T03:49:21.614Z,-2.24
2023-02-26T03:51:27.645Z,-2.17
2023-02-26T03:53:37.698Z,-2.22
2023-02-26T03:55:45.641Z,-2.08
2023-02-26T03:57:49.670Z,-2.10
2023-02-26T03:59:52.390Z,-2.24
2023-02-26T04:02:00.464Z,-2.29
2023-02-26T04:04:06.742Z,-2.30
2023-02-26T04:06:10.061Z,-2.31
2023-02-26T04:08:12.772Z,-2.37
2023-02-26T04:10:21.525Z,-2.44
2023-02-26T04:12:25.626Z,-2.41
2023-02-26T04:14:28.266Z,-2.41
2023-02-26T04:16:31.242Z,-2.45
2023-02-26T04:18:34.027Z,-2.47
2023-02-26T04:20:36.739Z,-2.58
2023-02-26T04:22:39.726Z,-2.58
2023-02-26T04:24:42.472Z,-2.58
2023-02-26T04:26:46.478Z,-2.60
2023-02-26T04:28:49.050Z,-2.57
2023-02-26T04:30:51.801Z,-2.52
2023-02-26T04:32:54.533Z,-2.42
2023-02-26T04:34:57.278Z,-2.56
2023-02-26T04:36:59.962Z,-2.55
2023-02-26T04:39:02.724Z,-2.52
2023-02-26T04:41:05.565Z,-2.53
2023-02-26T04:43:09.604Z,-2.55
2023-02-26T04:45:12.210Z,-2.53
2023-02-26T04:47:15.060Z,-2.61
2023-02-26T04:49:17.929Z,-2.63
2023-02-26T04:51:20.574Z,-2.63
2023-02-26T04:53:23.201Z,-2.66
2023-02-26T04:55:25.947Z,-2.59
2023-02-26T04:57:28.631Z,-2.49
2023-02-26T04:59:32.648Z,-2.60
2023-02-26T05:01:35.897Z,-2.69
2023-02-26T05:03:38.539Z,-2.62
2023-02-26T05:05:41.133Z,-2.54
2023-02-26T05:07:43.823Z,-2.56
2023-02-26T05:09:46.756Z,-2.53
2023-02-26T05:11:49.522Z,-2.57
2023-02-26T05:13:52.159Z,-2.61
2023-02-26T05:15:56.224Z,-2.64
2023-02-26T05:17:58.882Z,-2.64
2023-02-26T05:20:01.496Z,-2.74
2023-02-26T05:22:04.111Z,-2.75
2023-02-26T05:24:07.261Z,-2.68
2023-02-26T05:26:09.845Z,-2.61
2023-02-26T05:28:12.543Z,-2.79
2023-02-26T05:30:17.062Z,-2.62
2023-02-26T05:32:21.011Z,-2.66
2023-02-26T05:34:23.587Z,-2.59
2023-02-26T05:36:26.640Z,-2.64
2023-02-26T05:38:29.461Z,-2.74
2023-02-26T05:40:32.136Z,-2.73
2023-02-26T05:42:34.770Z,-2.72
2023-02-26T05:44:37.490Z,-2.62
2023-02-26T05:46:40.218Z,-2.82
2023-02-26T05:48:45.896Z,-2.82
2023-02-26T05:50:51.415Z,-2.68
2023-02-26T05:52:54.490Z,-2.66
2023-02-26T05:54:57.142Z,-2.95
2023-02-26T05:57:00.105Z,-3.01
2023-02-26T05:59:03.833Z,-3.09
2023-02-26T06:01:06.857Z,-3.08
2023-02-26T06:03:09.538Z,-3.07
2023-02-26T06:05:13.585Z,-2.92
2023-02-26T06:07:16.217Z,-2.99
2023-02-26T06:09:18.987Z,-2.98
2023-02-26T06:11:22.034Z,-3.03
2023-02-26T06:13:24.686Z,-2.98
2023-02-26T06:15:27.294Z,-2.95
2023-02-26T06:17:29.973Z,-3.06
2023-02-26T06:19:32.722Z,-3.13
2023-02-26T06:21:36.680Z,-2.93
2023-02-26T06:23:39.406Z,-2.86
2023-02-26T06:25:42.380Z,-2.88
2023-02-26T06:27:45.237Z,-2.95
2023-02-26T06:29:48.109Z,-2.94
2023-02-26T06:31:51.138Z,-2.98
2023-02-26T06:33:54.077Z,-3.06
2023-02-26T06:35:57.967Z,-2.97
2023-02-26T06:38:02.034Z,-2.88
2023-02-26T06:40:05.646Z,-2.86
2023-02-26T06:42:08.312Z,-2.81
2023-02-26T06:44:11.625Z,-2.72
2023-02-26T06:46:14.690Z,-2.70
2023-02-26T06:48:17.591Z,-2.45
2023-02-26T06:50:20.346Z,-2.55
2023-02-26T06:52:23.045Z,-2.84
2023-02-26T06:54:27.101Z,-2.85
2023-02-26T06:56:30.058Z,-2.77
2023-02-26T06:58:32.899Z,-2.54
2023-02-26T07:00:36.189Z,-2.71
2023-02-26T07:02:38.797Z,-2.87
2023-02-26T07:04:41.528Z,-2.73
2023-02-26T07:06:44.251Z,-2.68
2023-02-26T07:08:47.036Z,-2.70
2023-02-26T07:10:51.077Z,-2.67
2023-02-26T07:12:53.692Z,-2.50
2023-02-26T07:14:56.312Z,-2.44
2023-02-26T07:16:59.004Z,-2.57
2023-02-26T07:19:01.637Z,-2.50
2023-02-26T07:21:05.046Z,-2.47
2023-02-26T07:23:07.712Z,-2.50
2023-02-26T07:25:11.103Z,-2.40
2023-02-26T07:27:15.029Z,-2.13
2023-02-26T07:29:17.668Z,-2.29
2023-02-26T07:31:20.373Z,-1.99
2023-02-26T07:33:23.347Z,-2.17
2023-02-26T07:35:26.220Z,-1.86
2023-02-26T07:37:29.540Z,-2.02
2023-02-26T07:39:32.186Z,-2.23
2023-02-26T07:41:34.825Z,-2.31
2023-02-26T07:43:38.935Z,-2.17
2023-02-26T07:45:41.783Z,-1.86
2023-02-26T07:47:44.397Z,-1.92
2023-02-26T07:49:47.110Z,-1.78
2023-02-26T07:51:50.162Z,-2.14
2023-02-26T07:53:53.011Z,-2.04
2023-02-26T07:55:55.899Z,-2.16
2023-02-26T07:57:58.624Z,-2.11
2023-02-26T08:00:02.740Z,-2.02
2023-02-26T08:02:05.836Z,-1.50
2023-02-26T08:04:08.594Z,-1.35
2023-02-26T08:06:11.248Z,-1.40
2023-02-26T08:08:14.247Z,-1.80
2023-02-26T08:10:16.936Z,-1.73
2023-02-26T08:12:19.625Z,-1.68
2023-02-26T08:14:22.290Z,-1.70
2023-02-26T08:16:26.713Z,-1.07
2023-02-26T08:18:29.585Z,-0.92
2023-02-26T08:20:32.270Z,-0.81
2023-02-26T08:22:34.977Z,-1.32
2023-02-26T08:24:37.631Z,-1.15
2023-02-26T08:26:40.521Z,-1.26
2023-02-26T08:28:43.188Z,-1.18
2023-02-26T08:30:45.842Z,-1.60
2023-02-26T08:32:49.846Z,-1.60
2023-02-26T08:34:52.486Z,-1.51
2023-02-26T08:36:55.166Z,-1.53
2023-02-26T08:38:58.326Z,-1.06
2023-02-26T08:41:01.323Z,-1.04
2023-02-26T08:43:04.505Z,-1.21
2023-02-26T08:45:08.295Z,-1.58
2023-02-26T08:47:11.617Z,-1.74
2023-02-26T08:49:15.643Z,-1.58
2023-02-26T08:51:18.981Z,-1.68
2023-02-26T08:53:21.640Z,-1.68
2023-02-26T08:55:24.442Z,-1.49
2023-02-26T08:57:28.242Z,-1.79
2023-02-26T08:59:30.840Z,-1.79
2023-02-26T09:01:33.867Z,-1.83
2023-02-26T09:03:36.704Z,-1.67
2023-02-26T09:05:40.954Z,-1.75
2023-02-26T09:07:44.019Z,-1.53
2023-02-26T09:09:46.860Z,-1.73
2023-02-26T09:11:49.604Z,-1.56
2023-02-26T09:13:52.868Z,-1.52
2023-02-26T09:15:55.553Z,-1.67
2023-02-26T09:17:58.200Z,-1.75
2023-02-26T09:20:01.086Z,-1.60
2023-02-26T09:22:06.466Z,-1.65
2023-02-26T09:24:09.942Z,-1.54
2023-02-26T09:26:12.782Z,-1.63
2023-02-26T09:28:15.506Z,-1.65
2023-02-26T09:30:18.296Z,-1.43
2023-02-26T09:32:21.159Z,-1.33
2023-02-26T09:34:23.959Z,-1.42
2023-02-26T09:36:27.441Z,-1.50
2023-02-26T09:38:31.811Z,-1.37
2023-02-26T09:40:43.761Z,-1.34
2023-02-26T09:43:02.241Z,-1.31
2023-02-26T09:45:07.173Z,-1.30
2023-02-26T09:47:17.140Z,-1.41
2023-02-26T09:49:28.395Z,-1.20
2023-02-26T09:51:34.993Z,-1.39
2023-02-26T09:53:42.100Z,-1.28
2023-02-26T09:55:46.724Z,-1.22
2023-02-26T09:57:52.723Z,-1.37
2023-02-26T09:59:55.631Z,-0.93
2023-02-26T10:02:03.404Z,-1.00
2023-02-26T10:04:15.752Z,-0.95
2023-02-26T10:06:25.323Z,-1.29
2023-02-26T10:08:39.700Z,-1.39
2023-02-26T10:10:50.553Z,-1.44
2023-02-26T10:12:54.104Z,-1.40
2023-02-26T10:15:01.393Z,-1.16
2023-02-26T10:17:15.401Z,-1.28
2023-02-26T10:19:20.736Z,-1.29
2023-02-26T10:21:27.593Z,-1.28
2023-02-26T10:23:35.861Z,-1.04
2023-02-26T10:25:41.160Z,-1.09
2023-02-26T10:27:56.778Z,-1.14
2023-02-26T10:30:03.820Z,-0.93
2023-02-26T10:32:10.690Z,-1.22
2023-02-26T10:34:22.576Z,-0.90
2023-02-26T10:36:29.127Z,-1.15
2023-02-26T10:38:32.947Z,-1.15
2023-02-26T10:40:40.582Z,-1.31
2023-02-26T10:42:48.664Z,-1.21
2023-02-26T10:45:01.090Z,-1.25
2023-02-26T10:47:15.904Z,-1.31
2023-02-26T10:49:40.939Z,-1.15
2023-02-26T10:51:44.781Z,-0.87
2023-02-26T10:53:51.865Z,-0.80
2023-02-26T10:55:58.136Z,-0.92
2023-02-26T10:58:07.784Z,-0.84
2023-02-26T11:00:18.225Z,-0.79
2023-02-26T11:02:34.857Z,-0.76
2023-02-26T11:04:37.663Z,-0.39
2023-02-26T11:06:44.120Z,-0.34
2023-02-26T11:08:50.468Z,-0.36
2023-02-26T11:10:55.409Z,-0.33
2023-02-26T11:13:00.382Z,-0.45
2023-02-26T11:15:05.546Z,-0.16
2023-02-26T11:17:12.906Z,-0.09
2023-02-26T11:19:17.200Z,0.08
2023-02-26T11:21:23.964Z,0.03
2023-02-26T11:23:28.253Z,-0.16
2023-02-26T11:25:35.669Z,-0.09
2023-02-26T11:27:39.545Z,0.01
2023-02-26T11:29:44.216Z,-0.14
2023-02-26T11:31:51.880Z,-0.40
2023-02-26T11:34:00.174Z,-0.33
2023-02-26T11:36:07.274Z,-0.28
2023-02-26T11:38:15.628Z,-0.13
2023-02-26T11:40:24.732Z,-0.35
2023-02-26T11:42:28.748Z,-0.02
2023-02-26T11:44:37.502Z,-0.29
2023-02-26T11:46:45.573Z,-0.16
2023-02-26T11:48:51.653Z,0.00
2023-02-26T11:50:58.834Z,-0.04
2023-02-26T11:53:07.758Z,-0.19
2023-02-26T11:55:20.571Z,0.04
2023-02-26T11:57:26.499Z,0.05
2023-02-26T11:59:32.967Z,-0.21
2023-02-26T12:01:37.726Z,0.17
2023-02-26T12:03:46.182Z,0.00
2023-02-26T12:05:50.557Z,0.05
2023-02-26T12:07:53.206Z,-0.20
2023-02-26T12:09:55.884Z,-0.12
2023-02-26T12:12:17.521Z,-0.02
2023-02-26T12:14:48.999Z,-0.08
2023-02-26T12:17:03.835Z,-0.12
2023-02-26T12:19:14.610Z,-0.03
2023-02-26T12:21:33.338Z,0.06
2023-02-26T12:23:56.481Z,0.02
2023-02-26T12:26:26.965Z,0.19
2023-02-26T12:28:58.470Z,0.34
2023-02-26T12:31:19.465Z,0.03
2023-02-26T12:33:36.106Z,-0.05
2023-02-26T12:35:46.300Z,0.15
2023-02-26T12:38:01.506Z,-0.10
2023-02-26T12:40:23.930Z,0.11
2023-02-26T12:42:40.095Z,-0.26
2023-02-26T12:45:04.190Z,0.06
2023-02-26T12:47:27.489Z,-0.19
2023-02-26T12:49:52.082Z,0.16
2023-02-26T12:52:18.295Z,0.25
2023-02-26T12:54:37.578Z,0.17
2023-02-26T12:57:00.283Z,0.35
2023-02-26T12:59:18.775Z,0.12
2023-02-26T13:01:38.158Z,0.21
2023-02-26T13:04:06.834Z,0.34
2023-02-26T13:06:30.310Z,0.11
2023-02-26T13:08:40.934Z,0.30
2023-02-26T13:10:59.572Z,0.36
2023-02-26T13:13:17.802Z,0.36
2023-02-26T13:15:49.252Z,0.35
2023-02-26T13:17:59.824Z,0.34
2023-02-26T13:20:05.008Z,0.36
2023-02-26T13:22:16.432Z,0.21
2023-02-26T13:24:25.729Z,0.28
2023-02-26T13:26:30.825Z,0.26
2023-02-26T13:28:40.691Z,0.19
2023-02-26T13:30:49.270Z,0.28
2023-02-26T13:32:55.188Z,0.26
2023-02-26T13:35:01.006Z,0.33
2023-02-26T13:37:05.289Z,0.46
2023-02-26T13:39:22.559Z,0.63
2023-02-26T13:41:38.276Z,0.67
2023-02-26T13:44:06.164Z,0.53
2023-02-26T13:46:30.970Z,0.63
2023-02-26T13:48:42.969Z,0.60
2023-02-26T13:50:58.547Z,1.19
2023-02-26T13:53:04.685Z,1.43
2023-02-26T13:55:07.948Z,1.06
2023-02-26T13:57:27.958Z,1.15
2023-02-26T13:59:37.598Z,1.16
2023-02-26T14:01:51.558Z,1.29
2023-02-26T14:04:09.979Z,1.26
2023-02-26T14:06:42.441Z,1.68
2023-02-26T14:08:50.285Z,1.38
2023-02-26T14:10:58.193Z,1.01
2023-02-26T14:13:12.911Z,1.02
2023-02-26T14:15:32.634Z,1.04
2023-02-26T14:17:50.027Z,0.94
2023-02-26T14:20:18.777Z,0.89
2023-02-26T14:22:23.647Z,0.70
2023-02-26T14:24:36.682Z,0.69
2023-02-26T14:26:39.902Z,0.77
2023-02-26T14:29:10.056Z,0.88
2023-02-26T14:31:22.272Z,0.91
2023-02-26T14:33:30.650Z,0.91
2023-02-26T14:35:36.042Z,0.88
2023-02-26T14:37:42.482Z,0.94
2023-02-26T14:39:49.593Z,1.12
2023-02-26T14:41:57.863Z,1.30
2023-02-26T14:44:06.517Z,1.36
2023-02-26T14:46:11.044Z,1.18
2023-02-26T14:48:16.405Z,1.40
2023-02-26T14:50:22.266Z,1.34
2023-02-26T14:52:51.724Z,0.90
2023-02-26T14:55:09.599Z,1.09
2023-02-26T14:57:20.630Z,1.28
2023-02-26T14:59:39.637Z,1.22
2023-02-26T15:01:49.249Z,0.96
2023-02-26T15:04:14.985Z,0.90
2023-02-26T15:06:32.533Z,0.90
2023-02-26T15:08:53.709Z,1.04
2023-02-26T15:11:11.094Z,1.18
2023-02-26T15:13:33.086Z,1.05
2023-02-26T15:15:49.048Z,0.90
2023-02-26T15:18:19.637Z,1.01
2023-02-26T15:20:32.118Z,0.84
2023-02-26T15:22:49.946Z,0.77
2023-02-26T15:24:53.462Z,0.89
2023-02-26T15:27:00.481Z,0.91
2023-02-26T15:29:05.694Z,0.73
2023-02-26T15:31:13.778Z,0.59
2023-02-26T15:33:20.348Z,0.72
2023-02-26T15:35:24.064Z,0.67
2023-02-26T15:37:30.058Z,0.63
2023-02-26T15:39:32.759Z,0.74
2023-02-26T15:41:35.669Z,0.90
2023-02-26T15:43:38.529Z,0.85
2023-02-26T15:45:44.783Z,0.77
2023-02-26T15:47:53.054Z,0.83
2023-02-26T15:49:56.568Z,0.72
2023-02-26T15:52:01.605Z,0.64
2023-02-26T15:54:06.183Z,0.72
2023-02-26T15:56:12.556Z,0.60
2023-02-26T15:58:21.787Z,0.59
2023-02-26T16:00:25.692Z,0.52
2023-02-26T16:02:31.797Z,0.49
2023-02-26T16:04:38.253Z,0.57
2023-02-26T16:06:43.154Z,0.59
2023-02-26T16:08:45.891Z,0.65
2023-02-26T16:10:48.855Z,0.54
2023-02-26T16:12:54.992Z,0.50
2023-02-26T16:15:01.786Z,0.48
2023-02-26T16:17:06.229Z,0.51
2023-02-26T16:19:14.679Z,0.51
2023-02-26T16:21:28.552Z,0.42
2023-02-26T16:23:41.789Z,0.40
2023-02-26T16:25:52.848Z,0.29
2023-02-26T16:28:00.731Z,0.23
2023-02-26T16:30:06.077Z,0.20
2023-02-26T16:32:12.138Z,0.20
2023-02-26T16:34:27.034Z,0.16
2023-02-26T16:36:34.375Z,0.24
2023-02-26T16:38:46.073Z,0.23
2023-02-26T16:40:58.399Z,0.17
2023-02-26T16:43:03.674Z,0.13
2023-02-26T16:45:19.851Z,0.17
2023-02-26T16:47:32.046Z,0.16
2023-02-26T16:49:37.452Z,0.27
2023-02-26T16:51:43.316Z,0.17
2023-02-26T16:53:49.566Z,0.10
2023-02-26T16:55:54.752Z,0.09
2023-02-26T16:57:57.824Z,0.21
2023-02-26T17:00:04.551Z,0.14
2023-02-26T17:02:14.358Z,0.12
2023-02-26T17:04:19.161Z,0.11
2023-02-26T17:06:23.487Z,0.06
2023-02-26T17:08:32.683Z,0.09
2023-02-26T17:10:40.971Z,0.07
2023-02-26T17:12:46.464Z,0.06
2023-02-26T17:14:56.669Z,0.05
2023-02-26T17:16:59.688Z,-0.04
2023-02-26T17:19:02.676Z,-0.01
2023-02-26T17:21:06.698Z,-0.04
2023-02-26T17:23:10.323Z,-0.09
2023-02-26T17:25:19.421Z,-0.12
2023-02-26T17:27:28.175Z,-0.14
2023-02-26T17:29:34.589Z,-0.13
2023-02-26T17:31:37.972Z,-0.13
2023-02-26T17:33:43.311Z,-0.16
2023-02-26T17:35:46.221Z,-0.14
2023-02-26T17:37:49.049Z,-0.13
2023-02-26T17:39:51.978Z,-0.18
2023-02-26T17:41:56.184Z,-0.20
2023-02-26T17:43:58.878Z,-0.19
2023-02-26T17:46:01.778Z,-0.16
2023-02-26T17:48:05.822Z,-0.26
2023-02-26T17:50:21.635Z,-0.23
2023-02-26T17:52:24.373Z,-0.33
2023-02-26T17:54:26.960Z,-0.30
2023-02-26T17:56:31.600Z,-0.35
2023-02-26T17:58:39.475Z,-0.36
2023-02-26T18:00:42.968Z,-0.37
2023-02-26T18:02:45.787Z,-0.44
2023-02-26T18:04:48.457Z,-0.41
2023-02-26T18:06:51.343Z,-0.47
2023-02-26T18:08:54.130Z,-0.52
2023-02-26T18:10:57.849Z,-0.53
2023-02-26T18:13:00.606Z,-0.47
2023-02-26T18:15:05.824Z,-0.56
2023-02-26T18:17:11.829Z,-0.61
2023-02-26T18:19:15.455Z,-0.65
2023-02-26T18:21:20.263Z,-0.65
2023-02-26T18:23:23.026Z,-0.62
2023-02-26T18:25:27.681Z,-0.66
2023-02-26T18:27:30.887Z,-0.67
2023-02-26T18:29:33.634Z,-0.67
2023-02-26T18:31:38.127Z,-0.66
2023-02-26T18:33:43.903Z,-0.64
2023-02-26T18:35:50.069Z,-0.61
2023-02-26T18:37:53.600Z,-0.59
2023-02-26T18:39:56.762Z,-0.69
2023-02-26T18:41:59.429Z,-0.65
2023-02-26T18:44:02.174Z,-0.63
2023-02-26T18:46:05.237Z,-0.64
2023-02-26T18:48:11.774Z,-0.64
2023-02-26T18:50:15.944Z,-0.74
2023-02-26T18:52:19.310Z,-0.61
2023-02-26T18:54:22.005Z,-0.69
2023-02-26T18:56:24.665Z,-0.78
2023-02-26T18:58:27.415Z,-0.81
2023-02-26T19:00:30.192Z,-0.87
2023-02-26T19:02:34.201Z,-0.89
2023-02-26T19:04:38.777Z,-0.86
2023-02-26T19:06:41.574Z,-0.95
2023-02-26T19:08:44.226Z,-0.90
2023-02-26T19:10:46.975Z,-1.00
2023-02-26T19:12:51.040Z,-0.94
2023-02-26T19:14:53.714Z,-0.99
2023-02-26T19:16:56.404Z,-1.05
2023-02-26T19:18:59.879Z,-0.99
2023-02-26T19:21:05.855Z,-1.00
2023-02-26T19:23:09.187Z,-1.03
2023-02-26T19:25:12.022Z,-1.05
2023-02-26T19:27:15.454Z,-1.00
2023-02-26T19:29:20.306Z,-1.12
2023-02-26T19:31:23.017Z,-1.17
2023-02-26T19:33:25.989Z,-1.13
2023-02-26T19:35:29.619Z,-1.12
2023-02-26T19:37:33.788Z,-1.04
2023-02-26T19:39:36.498Z,-1.03
2023-02-26T19:41:39.115Z,-1.04
2023-02-26T19:43:41.800Z,-1.17
2023-02-26T19:45:44.489Z,-1.13
2023-02-26T19:47:47.430Z,-1.09
2023-02-26T19:49:50.181Z,-1.11
2023-02-26T19:51:53.091Z,-1.12
2023-02-26T19:53:57.106Z,-1.11
2023-02-26T19:55:59.745Z,-1.08
2023-02-26T19:58:02.452Z,-0.99
2023-02-26T20:00:06.904Z,-1.07
2023-02-26T20:02:10.430Z,-1.02
2023-02-26T20:04:13.827Z,-1.08
2023-02-26T20:06:16.608Z,-1.15
2023-02-26T20:08:19.918Z,-1.07
2023-02-26T20:10:24.417Z,-1.00
2023-02-26T20:12:27.104Z,-1.11
2023-02-26T20:14:29.743Z,-1.08
2023-02-26T20:16:35.126Z,-1.12
2023-02-26T20:18:38.372Z,-1.22
2023-02-26T20:20:43.785Z,-1.25
2023-02-26T20:22:46.481Z,-1.33
2023-02-26T20:24:49.212Z,-1.36
2023-02-26T20:26:53.346Z,-1.39
2023-02-26T20:28:55.966Z,-1.34
2023-02-26T20:30:59.303Z,-1.36
2023-02-26T20:33:02.107Z,-1.42
2023-02-26T20:35:05.239Z,-1.41
2023-02-26T20:37:07.959Z,-1.44
2023-02-26T20:39:10.659Z,-1.39
2023-02-26T20:41:13.305Z,-1.49
2023-02-26T20:43:17.372Z,-1.44
2023-02-26T20:45:20.146Z,-1.55
2023-02-26T20:47:22.766Z,-1.54
2023-02-26T20:49:25.597Z,-1.59
2023-02-26T20:51:28.664Z,-1.54
2023-02-26T20:53:31.495Z,-1.53
2023-02-26T20:55:34.260Z,-1.53
2023-02-26T20:57:36.960Z,-1.57
2023-02-26T20:59:40.968Z,-1.58
2023-02-26T21:01:43.682Z,-1.54
2023-02-26T21:03:46.376Z,-1.59
2023-02-26T21:05:49.035Z,-1.59
2023-02-26T21:07:51.712Z,-1.63
2023-02-26T21:09:55.454Z,-1.70
2023-02-26T21:11:58.039Z,-1.59
2023-02-26T21:14:01.883Z,-1.68
2023-02-26T21:16:06.421Z,-1.65
2023-02-26T21:18:09.173Z,-1.68
2023-02-26T21:20:17.835Z,-1.74
2023-02-26T21:22:21.405Z,-1.76
2023-02-26T21:24:25.148Z,-1.72
2023-02-26T21:26:27.854Z,-1.69
2023-02-26T21:28:30.625Z,-1.75
2023-02-26T21:30:33.263Z,-1.65
2023-02-26T21:32:37.531Z,-1.73
2023-02-26T21:34:40.156Z,-1.65
2023-02-26T21:36:45.301Z,-1.62
2023-02-26T21:38:47.977Z,-1.66
2023-02-26T21:40:50.735Z,-1.66
2023-02-26T21:42:53.352Z,-1.65
2023-02-26T21:44:56.157Z,-1.62
2023-02-26T21:46:59.324Z,-1.63
2023-02-26T21:49:03.303Z,-1.66
2023-02-26T21:51:06.670Z,-1.64
2023-02-26T21:53:09.400Z,-1.63
2023-02-26T21:55:12.452Z,-1.56
2023-02-26T21:57:15.109Z,-1.58
2023-02-26T21:59:17.929Z,-1.49
2023-02-26T22:01:20.653Z,-1.51
2023-02-26T22:03:23.244Z,-1.46
2023-02-26T22:05:27.439Z,-1.63
2023-02-26T22:07:30.229Z,-1.70
2023-02-26T22:09:32.851Z,-1.65
2023-02-26T22:11:35.666Z,-1.78
2023-02-26T22:13:38.312Z,-1.78
2023-02-26T22:15:41.297Z,-1.85
2023-02-26T22:17:43.856Z,-1.93
2023-02-26T22:19:46.531Z,-1.87
2023-02-26T22:21:50.520Z,-1.84
2023-02-26T22:23:53.266Z,-1.89
2023-02-26T22:25:55.882Z,-1.90
2023-02-26T22:27:58.603Z,-1.91
2023-02-26T22:30:01.188Z,-1.93
2023-02-26T22:32:03.952Z,-1.99
2023-02-26T22:34:06.737Z,-1.96
2023-02-26T22:36:09.501Z,-1.99
2023-02-26T22:38:13.491Z,-2.01
2023-02-26T22:40:16.584Z,-2.03
2023-02-26T22:42:19.528Z,-2.06
2023-02-26T22:44:22.310Z,-2.12
2023-02-26T22:46:28.265Z,-2.07
2023-02-26T22:48:31.028Z,-2.19
2023-02-26T22:50:34.342Z,-2.17
2023-02-26T22:52:37.237Z,-2.21
2023-02-26T22:54:41.779Z,-2.22
2023-02-26T22:56:44.499Z,-2.23
2023-02-26T22:58:47.139Z,-2.21
2023-02-26T23:00:49.825Z,-2.18
2023-02-26T23:02:52.559Z,-2.19
2023-02-26T23:04:55.311Z,-2.19
2023-02-26T23:06:58.042Z,-2.28
2023-02-26T23:09:00.715Z,-2.27
2023-02-26T23:11:05.578Z,-2.29
2023-02-26T23:13:08.476Z,-2.29
2023-02-26T23:15:12.380Z,-2.33
2023-02-26T23:17:15.055Z,-2.32
2023-02-26T23:19:17.804Z,-2.29
2023-02-26T23:21:20.853Z,-2.30
2023-02-26T23:23:23.791Z,-2.35
2023-02-26T23:25:26.823Z,-2.34
2023-02-26T23:27:30.821Z,-2.35
2023-02-26T23:29:33.528Z,-2.36
2023-02-26T23:31:36.274Z,-2.39
2023-02-26T23:33:38.971Z,-2.37
2023-02-26T23:35:41.676Z,-2.39
2023-02-26T23:37:44.370Z,-2.37
2023-02-26T23:39:48.937Z,-2.42
2023-02-26T23:41:51.647Z,-2.46
2023-02-26T23:43:55.650Z,-2.48
2023-02-26T23:45:58.289Z,-2.43
2023-02-26T23:48:00.943Z,-2.51
2023-02-26T23:50:03.960Z,-2.45
2023-02-26T23:52:06.693Z,-2.48
2023-02-26T23:54:09.370Z,-2.41
2023-02-26T23:56:12.070Z,-2.57
2023-02-26T23:58:14.746Z,-2.53
